Terminal Aerodrome Forecast
Issued by NWS Sioux Falls, SD

Home | Current Version | Previous Version | Text Only | Print | Product List | Glossary On
Versions: 1 2 3 4 5 6 7 8 9 10 11 12 13 14 15 16 17
568
FTUS43 KFSD 232320
TAFHON
TAF
KHON 232320Z 2400/2424 12015G23KT P6SM SKC
     FM241200 14011KT P6SM VCSH OVC080
      TEMPO 2413/2415 4SM TSRA BKN035CB
     FM241500 15012G19KT P6SM SHRA VCTS OVC040CB
     FM241800 17014KT P6SM OVC025
     FM242100 19012KT P6SM BKN050=

USA.gov is the U.S. government's official web portal to all federal, state and local government web resources and services.